Time;durP1;ratioP1;P1;durP2;ratioP2;P2;SDS_P1;SDS_P2;PMS_P1;PMS_P2;Temp;Humidity;BMP_temperature;BMP_pressure;BME280_temperature;BME280_humidity;BME280_pressure;Samples;Min_cycle;Max_cycle;Signal;HPM_P1;HPM_P2
2022/04/04 00:01:51;;;;;;;9.30;7.13;;;;;;;9.58;37.53;95339.44;5032136;28;20255;-62
2022/04/04 00:04:18;;;;;;;8.13;6.82;;;;;;;9.10;38.28;95322.41;5030644;28;20193;-63
2022/04/04 00:06:45;;;;;;;8.23;6.40;;;;;;;8.58;38.72;95313.09;5032315;28;20228;-62
2022/04/04 00:09:12;;;;;;;10.45;6.05;;;;;;;9.12;38.07;95324.81;5031111;28;20228;-60
2022/04/04 00:11:42;;;;;;;9.57;6.30;;;;;;;9.34;37.89;95327.53;5031580;28;20255;-65
2022/04/04 00:14:10;;;;;;;9.00;7.07;;;;;;;8.90;37.94;95327.31;5031059;28;20697;-62
2022/04/04 00:16:39;;;;;;;8.88;6.95;;;;;;;9.28;37.51;95328.47;5031234;28;20232;-65
2022/04/04 00:19:07;;;;;;;8.57;6.03;;;;;;;9.57;37.57;95328.16;5031349;28;20205;-57
2022/04/04 00:21:34;;;;;;;7.22;6.20;;;;;;;9.58;37.11;95318.50;5031003;28;20197;-64
2022/04/04 00:24:01;;;;;;;9.10;6.78;;;;;;;8.85;38.62;95335.03;5031227;28;20235;-66
2022/04/04 00:26:28;;;;;;;9.68;6.57;;;;;;;8.99;37.82;95331.13;5030732;28;20265;-63
2022/04/04 00:28:57;;;;;;;8.50;6.03;;;;;;;8.87;38.39;95338.22;5030058;28;20287;-59
2022/04/04 00:31:24;;;;;;;8.05;6.57;;;;;;;9.69;37.88;95335.94;5030795;28;20481;-59
2022/04/04 00:33:52;;;;;;;7.47;6.22;;;;;;;9.11;38.20;95333.66;5031303;28;20201;-63
2022/04/04 00:36:19;;;;;;;6.95;6.25;;;;;;;9.24;37.76;95343.84;5030607;28;20284;-61
2022/04/04 00:38:48;;;;;;;8.32;5.55;;;;;;;9.12;38.32;95343.88;5031451;28;20208;-64
2022/04/04 00:41:15;;;;;;;33.53;22.75;;;;;;;10.01;38.22;95335.13;5030137;28;20305;-63
2022/04/04 00:43:49;;;;;;;31.73;22.42;;;;;;;10.55;38.00;95328.25;5030259;28;20204;-62
2022/04/04 00:46:16;;;;;;;7.88;6.10;;;;;;;9.60;37.22;95338.16;5030712;28;20244;-60
2022/04/04 00:48:43;;;;;;;7.47;6.07;;;;;;;9.69;37.68;95333.34;5030707;28;20201;-62
2022/04/04 00:51:10;;;;;;;6.20;5.40;;;;;;;9.91;36.59;95336.78;5030179;28;20201;-63
2022/04/04 00:53:37;;;;;;;6.72;5.63;;;;;;;9.13;38.03;95336.84;5030544;28;20273;-65
2022/04/04 00:56:04;;;;;;;6.97;5.90;;;;;;;9.47;37.51;95348.16;5030662;28;20201;-65
2022/04/04 00:58:36;;;;;;;7.38;5.50;;;;;;;8.59;39.09;95348.66;5030164;28;20209;-61
2022/04/04 01:01:06;;;;;;;8.65;5.70;;;;;;;8.79;38.71;95338.59;5029707;28;20249;-65
2022/04/04 01:03:33;;;;;;;7.40;5.93;;;;;;;8.93;38.70;95352.97;5030099;28;20189;-58
2022/04/04 01:06:00;;;;;;;6.88;5.78;;;;;;;8.94;38.15;95343.31;5029618;28;20215;-63
2022/04/04 01:08:27;;;;;;;7.18;5.90;;;;;;;9.00;38.48;95345.78;5029294;28;20201;-61
2022/04/04 01:10:54;;;;;;;6.90;5.50;;;;;;;8.90;37.74;95353.44;5029178;28;20299;-62
2022/04/04 01:13:21;;;;;;;7.43;5.57;;;;;;;8.97;38.62;95340.22;5029840;28;20190;-61
2022/04/04 01:15:49;;;;;;;9.02;6.32;;;;;;;9.54;37.16;95333.88;5028979;28;20295;-63
2022/04/04 01:18:16;;;;;;;7.70;6.30;;;;;;;9.87;36.64;95327.84;5029932;28;20186;-64
2022/04/04 01:20:43;;;;;;;6.53;5.80;;;;;;;9.47;36.70;95332.47;5028951;28;20694;-64
2022/04/04 01:23:13;;;;;;;8.43;6.47;;;;;;;9.80;36.95;95333.22;5028486;28;20185;-59
2022/04/04 01:25:40;;;;;;;7.78;6.30;;;;;;;9.34;37.37;95327.53;5029796;28;20208;-61
2022/04/04 01:28:07;;;;;;;6.45;5.75;;;;;;;8.81;38.10;95339.13;5030147;28;20220;-61
2022/04/04 01:30:34;;;;;;;6.75;5.43;;;;;;;9.49;37.60;95325.16;5029026;28;20205;-64
2022/04/04 01:33:01;;;;;;;6.53;5.82;;;;;;;9.87;36.83;95327.84;5029182;28;20741;-63
2022/04/04 01:35:28;;;;;;;6.97;5.88;;;;;;;9.92;36.81;95326.09;5028816;28;20205;-63
2022/04/04 01:37:55;;;;;;;7.30;5.95;;;;;;;10.20;35.82;95312.06;5029522;28;20284;-63
2022/04/04 01:40:23;;;;;;;7.10;5.82;;;;;;;10.37;35.73;95319.88;5028795;28;20248;-60
2022/04/04 01:42:55;;;;;;;7.57;5.70;;;;;;;9.40;36.78;95321.38;5029159;28;20875;-59
2022/04/04 01:48:10;;;;;;;7.95;5.82;;;;;;;9.83;35.94;95326.72;5029487;28;20263;-60
2022/04/04 01:50:37;;;;;;;9.02;6.50;;;;;;;9.11;37.12;95344.94;5028549;28;20250;-62
2022/04/04 01:55:50;;;;;;;6.45;5.43;;;;;;;9.41;36.79;95336.00;5028843;28;20681;-66
2022/04/04 01:58:18;;;;;;;7.35;5.97;;;;;;;9.94;36.61;95338.94;5029044;28;20197;-64
2022/04/04 02:00:45;;;;;;;14.60;10.75;;;;;;;10.29;36.25;95334.22;5029326;28;20279;-62
2022/04/04 02:03:12;;;;;;;8.25;6.63;;;;;;;10.48;35.44;95332.06;5029622;28;20192;-62
2022/04/04 02:05:39;;;;;;;6.82;5.53;;;;;;;10.50;34.91;95333.44;5028821;28;20212;-59
2022/04/04 02:08:06;;;;;;;7.25;5.85;;;;;;;9.81;36.46;95339.25;5029720;28;20201;-60
2022/04/04 02:10:34;;;;;;;7.68;6.03;;;;;;;10.00;36.45;95332.72;5029020;28;20193;-62
2022/04/04 02:13:02;;;;;;;7.50;5.88;;;;;;;10.05;36.01;95330.19;5029283;28;20201;-63
2022/04/04 02:15:29;;;;;;;6.05;5.38;;;;;;;9.87;35.87;95323.38;5028674;28;20231;-59
2022/04/04 02:17:56;;;;;;;6.53;5.72;;;;;;;10.08;35.44;95324.47;5028903;28;20189;-63
2022/04/04 02:20:23;;;;;;;8.60;5.95;;;;;;;10.33;35.42;95324.06;5030163;28;20209;-63
2022/04/04 02:22:50;;;;;;;7.55;6.00;;;;;;;10.70;34.99;95312.69;5033130;28;20224;-62
2022/04/04 02:25:17;;;;;;;8.10;5.80;;;;;;;10.66;34.82;95305.56;5033132;28;20205;-63
2022/04/04 02:27:44;;;;;;;8.27;5.85;;;;;;;10.54;34.71;95318.81;5033278;28;20201;-66
2022/04/04 02:30:11;;;;;;;7.50;5.68;;;;;;;9.87;35.80;95327.84;5033437;28;20259;-64
2022/04/04 02:32:38;;;;;;;7.72;5.95;;;;;;;9.95;35.44;95327.41;5032672;28;20201;-67
2022/04/04 02:35:06;;;;;;;9.20;6.10;;;;;;;9.53;36.74;95321.03;5032203;28;20213;-64
2022/04/04 02:37:33;;;;;;;8.70;6.25;;;;;;;10.40;35.94;95316.81;5032673;28;20223;-65
2022/04/04 02:40:00;;;;;;;6.90;6.00;;;;;;;10.70;35.16;95312.69;5032015;28;20266;-63
2022/04/04 02:42:27;;;;;;;9.07;6.07;;;;;;;10.61;34.80;95311.56;5032862;28;20223;-60
2022/04/04 02:44:54;;;;;;;7.80;6.05;;;;;;;10.70;34.88;95302.22;5032082;28;20204;-61
2022/04/04 02:47:21;;;;;;;7.35;5.68;;;;;;;10.27;35.11;95301.44;5033182;28;20215;-61
2022/04/04 02:49:49;;;;;;;8.48;6.15;;;;;;;10.20;34.81;95304.22;5032497;28;20185;-66
2022/04/04 02:52:16;;;;;;;9.38;6.80;;;;;;;10.41;35.04;95297.41;5032646;28;20726;-66
2022/04/04 02:54:44;;;;;;;7.40;6.22;;;;;;;10.02;35.41;95294.00;5031892;28;20608;-61
2022/04/04 02:57:12;;;;;;;7.47;6.03;;;;;;;10.03;35.25;95292.97;5032356;28;20197;-59
2022/04/04 02:59:39;;;;;;;8.13;6.80;;;;;;;9.70;35.84;95306.13;5032189;28;20205;-66
2022/04/04 03:02:06;;;;;;;7.78;6.78;;;;;;;9.51;36.56;95307.38;5032411;28;20319;-60
2022/04/04 03:04:33;;;;;;;8.75;6.25;;;;;;;9.63;36.00;95305.50;5031524;28;20275;-63
2022/04/04 03:07:00;;;;;;;9.45;6.75;;;;;;;9.51;35.93;95310.00;5032082;28;20203;-61
2022/04/04 03:09:27;;;;;;;7.10;6.40;;;;;;;9.26;36.01;95293.91;5031839;28;20267;-62
2022/04/04 03:11:54;;;;;;;9.20;7.00;;;;;;;9.78;35.78;95303.13;5032099;28;20682;-62
2022/04/04 03:14:21;;;;;;;9.88;7.20;;;;;;;10.13;34.99;95299.16;5032056;28;20204;-62
2022/04/04 03:16:48;;;;;;;9.10;7.20;;;;;;;9.86;34.83;95305.31;5031955;28;20225;-61
2022/04/04 03:19:15;;;;;;;9.93;7.95;;;;;;;10.20;34.72;95302.41;5031750;28;20201;-65
2022/04/04 03:21:42;;;;;;;8.57;7.28;;;;;;;10.22;35.05;95293.53;5032034;28;20240;-63
2022/04/04 03:24:11;;;;;;;11.43;7.53;;;;;;;9.77;35.82;95306.75;5031915;28;20597;-63
2022/04/04 03:26:38;;;;;;;11.63;7.60;;;;;;;9.45;36.80;95305.75;5032099;28;20223;-60
2022/04/04 03:29:05;;;;;;;8.73;6.80;;;;;;;9.08;36.31;95323.69;5032058;28;20292;-62
2022/04/04 03:31:32;;;;;;;8.57;7.53;;;;;;;8.85;36.66;95313.34;5031248;28;20189;-62
2022/04/04 03:33:59;;;;;;;10.25;7.50;;;;;;;8.72;36.86;95330.09;5031672;28;20219;-62
2022/04/04 03:36:26;;;;;;;10.55;8.45;;;;;;;8.90;37.36;95329.94;5031282;28;20608;-59
2022/04/04 03:38:53;;;;;;;9.45;7.80;;;;;;;9.19;36.60;95331.50;5031635;28;20716;-63
2022/04/04 03:41:20;;;;;;;9.48;7.80;;;;;;;9.45;36.15;95332.66;5031125;28;20217;-61
2022/04/04 03:43:47;;;;;;;9.75;8.30;;;;;;;8.96;37.07;95336.81;5032283;28;20201;-66
2022/04/04 03:46:14;;;;;;;9.30;7.75;;;;;;;8.69;37.34;95345.44;5031264;28;20186;-65
2022/04/04 03:48:41;;;;;;;8.25;7.22;;;;;;;8.36;37.72;95337.47;5031507;28;20212;-65
2022/04/04 03:51:09;;;;;;;11.70;7.78;;;;;;;8.56;38.06;95341.28;5031119;28;20193;-65
2022/04/04 03:53:36;;;;;;;9.18;7.68;;;;;;;9.07;37.43;95343.81;5031406;28;21046;-61
2022/04/04 03:56:04;;;;;;;9.55;7.32;;;;;;;9.43;36.97;95349.66;5030552;28;20220;-63
2022/04/04 03:58:31;;;;;;;11.68;8.18;;;;;;;9.12;36.75;95359.56;5029986;28;20225;-66
2022/04/04 04:00:58;;;;;;;12.85;8.30;;;;;;;9.23;37.17;95356.09;5030029;28;20241;-65
2022/04/04 04:03:26;;;;;;;10.10;8.40;;;;;;;8.90;37.55;95363.91;5031381;28;20219;-63
2022/04/04 04:06:12;;;;;;;10.98;7.97;;;;;;;8.62;37.71;95374.31;5030780;28;20275;-61
2022/04/04 04:08:45;;;;;;;10.52;8.02;;;;;;;9.54;36.77;95359.25;5031398;28;20679;-58
2022/04/04 04:11:14;;;;;;;10.60;8.00;;;;;;;9.32;36.51;95366.19;5030772;28;20320;-62
2022/04/04 04:13:42;;;;;;;9.48;8.45;;;;;;;10.09;35.40;95368.00;5031214;28;20208;-58
2022/04/04 04:16:09;;;;;;;11.38;8.88;;;;;;;9.85;36.38;95363.94;5030945;28;20237;-59
2022/04/04 04:18:37;;;;;;;12.50;9.15;;;;;;;9.31;36.28;95375.06;5030919;28;20228;-60
2022/04/04 04:21:07;;;;;;;11.43;8.80;;;;;;;9.91;35.67;95376.03;5031144;28;20254;-61
2022/04/04 04:23:42;;;;;;;11.10;8.93;;;;;;;9.87;36.02;95383.59;5030982;28;20192;-62
2022/04/04 04:26:13;;;;;;;12.95;10.02;;;;;;;8.92;37.16;95403.63;5029873;28;20682;-63
2022/04/04 04:28:43;;;;;;;12.23;9.70;;;;;;;9.24;38.23;95385.66;5029765;28;20212;-63
2022/04/04 04:31:10;;;;;;;12.27;9.57;;;;;;;9.57;36.29;95393.56;5030241;28;20216;-63
2022/04/04 04:33:37;;;;;;;11.05;9.00;;;;;;;9.43;36.46;95394.13;5030471;28;20209;-61
2022/04/04 04:36:04;;;;;;;13.30;9.70;;;;;;;9.52;35.75;95397.94;5029876;28;20201;-61
2022/04/04 04:38:31;;;;;;;12.60;9.90;;;;;;;9.64;36.32;95401.25;5030961;28;20209;-62
2022/04/04 04:40:58;;;;;;;12.90;9.48;;;;;;;10.22;35.32;95404.28;5030757;28;20231;-61
2022/04/04 04:43:26;;;;;;;15.07;9.68;;;;;;;10.09;35.80;95394.16;5029233;28;20231;-63
2022/04/04 04:45:53;;;;;;;13.60;10.07;;;;;;;10.33;34.98;95390.31;5029582;28;20607;-63
2022/04/04 04:48:21;;;;;;;28.50;22.25;;;;;;;10.68;35.77;95398.63;5030098;28;20193;-68
2022/04/04 04:50:48;;;;;;;21.63;15.45;;;;;;;10.99;34.70;95405.84;5029808;28;20173;-63
2022/04/04 04:53:15;;;;;;;85.00;62.08;;;;;;;11.23;36.21;95401.91;5045733;28;20214;-61
2022/04/04 04:55:43;;;;;;;14.88;11.00;;;;;;;10.77;35.52;95407.66;5048628;28;20283;-64
2022/04/04 04:58:10;;;;;;;11.00;9.77;;;;;;;10.66;34.94;95402.53;5044222;28;20247;-63
2022/04/04 05:00:37;;;;;;;14.70;9.88;;;;;;;10.86;33.75;95406.19;5028881;28;20207;-63
2022/04/04 05:05:50;;;;;;;11.77;9.85;;;;;;;10.60;34.78;95406.91;5027877;28;20288;-61
2022/04/04 05:08:18;;;;;;;11.15;9.63;;;;;;;10.60;34.82;95404.28;5029679;28;20197;-62
2022/04/04 05:10:45;;;;;;;13.20;9.82;;;;;;;10.58;34.47;95402.97;5028499;28;20213;-63
2022/04/04 05:13:13;;;;;;;83.18;57.33;;;;;;;10.23;35.51;95413.75;5029399;28;20285;-60
2022/04/04 05:15:40;;;;;;;29.92;22.30;;;;;;;10.33;35.40;95411.25;5029037;28;20556;-66
2022/04/04 05:18:08;;;;;;;21.55;13.13;;;;;;;10.32;36.12;95420.16;5029510;28;20201;-60
2022/04/04 05:20:35;;;;;;;13.00;10.55;;;;;;;10.53;34.54;95422.00;5029041;28;20200;-63
2022/04/04 05:23:02;;;;;;;12.32;9.50;;;;;;;10.72;34.85;95412.03;5029623;28;20681;-62
2022/04/04 05:25:29;;;;;;;11.85;9.65;;;;;;;10.66;34.43;95420.88;5028984;28;20559;-63
2022/04/04 05:27:57;;;;;;;13.13;9.45;;;;;;;10.20;35.51;95425.47;5029276;28;20185;-61
2022/04/04 05:30:24;;;;;;;12.80;9.60;;;;;;;10.12;35.03;95419.88;5029229;28;20201;-63
2022/04/04 05:32:51;;;;;;;12.60;9.82;;;;;;;10.96;34.31;95432.56;5029330;28;20243;-62
2022/04/04 05:35:19;;;;;;;13.55;10.05;;;;;;;10.69;35.29;95434.28;5028860;28;20189;-62
2022/04/04 05:37:47;;;;;;;12.50;10.43;;;;;;;10.80;34.69;95433.38;5029909;28;20686;-62
2022/04/04 05:40:14;;;;;;;10.88;8.93;;;;;;;10.38;34.80;95444.59;5028731;28;20204;-62
2022/04/04 05:42:41;;;;;;;12.73;9.65;;;;;;;10.93;34.72;95438.25;5029039;28;20325;-61
2022/04/04 05:45:09;;;;;;;11.88;9.73;;;;;;;10.70;35.58;95443.75;5029043;28;20565;-61
2022/04/04 05:47:36;;;;;;;13.80;9.80;;;;;;;10.66;35.77;95447.88;5029565;28;20202;-64
2022/04/04 05:50:05;;;;;;;16.13;10.10;;;;;;;11.38;34.62;95445.88;5028471;28;20196;-62
2022/04/04 05:52:34;;;;;;;12.27;9.90;;;;;;;11.05;35.08;95449.44;5028798;28;20243;-62
2022/04/04 05:55:05;;;;;;;14.98;10.10;;;;;;;11.18;35.47;95459.53;5028300;28;20693;-63
2022/04/04 05:57:35;;;;;;;12.13;9.98;;;;;;;10.68;35.08;95461.53;5029098;28;20586;-61
2022/04/04 06:00:10;;;;;;;13.93;9.75;;;;;;;10.62;35.77;95457.25;5028845;28;20200;-60
2022/04/04 06:02:38;;;;;;;11.00;9.25;;;;;;;10.98;34.60;95459.28;5028280;28;20299;-61
2022/04/04 06:05:06;;;;;;;13.32;10.07;;;;;;;11.21;35.12;95472.19;5028658;28;20231;-61
2022/04/04 06:07:34;;;;;;;12.68;9.93;;;;;;;11.10;35.47;95474.91;5048727;28;20258;-60
2022/04/04 06:10:02;;;;;;;14.65;10.82;;;;;;;11.38;34.57;95460.81;5048484;28;20200;-62
2022/04/04 06:12:30;;;;;;;12.75;9.93;;;;;;;10.58;34.89;95466.66;5048252;28;20200;-61
2022/04/04 06:14:57;;;;;;;13.60;10.55;;;;;;;11.38;34.62;95447.69;5048220;28;20212;-60
2022/04/04 06:17:23;;;;;;;12.18;10.02;;;;;;;11.11;34.57;95455.53;5048901;28;20311;-59
2022/04/04 06:19:50;;;;;;;12.20;10.23;;;;;;;11.36;34.68;95447.16;5048546;28;20219;-61
2022/04/04 06:22:17;;;;;;;11.98;10.20;;;;;;;11.44;34.10;95449.34;5047153;28;20267;-64
2022/04/04 06:24:44;;;;;;;12.48;9.93;;;;;;;11.47;35.06;95436.53;5048011;28;20199;-62
2022/04/04 06:27:11;;;;;;;16.33;10.65;;;;;;;11.23;34.48;95433.38;5048479;28;20196;-61
2022/04/04 06:29:39;;;;;;;13.55;10.25;;;;;;;11.20;34.51;95433.84;5048310;28;20295;-64
2022/04/04 06:32:06;;;;;;;21.45;10.65;;;;;;;11.51;35.64;95439.44;5048541;28;20188;-64
2022/04/04 06:34:33;;;;;;;12.88;10.52;;;;;;;11.06;34.74;95445.78;5048118;28;20189;-60
2022/04/04 06:37:05;;;;;;;14.48;10.25;;;;;;;10.35;35.87;95445.06;5048695;28;20200;-62
2022/04/04 06:39:32;;;;;;;16.30;10.73;;;;;;;10.81;34.66;95447.28;5048150;28;20196;-60
2022/04/04 06:41:59;;;;;;;14.45;10.27;;;;;;;11.15;34.57;95452.16;5048447;28;20319;-62
2022/04/04 06:44:26;;;;;;;18.23;9.88;;;;;;;11.44;34.32;95449.34;5047661;28;20223;-61
2022/04/04 06:46:53;;;;;;;14.02;10.68;;;;;;;11.00;34.90;95428.38;5048848;28;20250;-59
2022/04/04 06:49:21;;;;;;;13.05;9.90;;;;;;;11.42;34.83;95459.28;5048603;28;20189;-59
2022/04/04 06:51:48;;;;;;;13.35;10.38;;;;;;;11.74;33.85;95453.09;5049105;28;20652;-63
2022/04/04 06:54:16;;;;;;;13.45;9.95;;;;;;;11.48;33.79;95450.44;5047217;28;20192;-62
2022/04/04 06:56:46;;;;;;;15.33;10.27;;;;;;;11.04;34.49;95454.91;5048390;28;20637;-61
2022/04/04 06:59:13;;;;;;;16.05;11.63;;;;;;;11.07;34.69;95457.84;5047737;28;20434;-62
2022/04/04 07:01:40;;;;;;;14.65;10.27;;;;;;;10.68;35.02;95461.53;5048762;28;20220;-61
2022/04/04 07:04:08;;;;;;;14.77;11.77;;;;;;;10.43;35.68;95463.81;5048031;28;20204;-61
2022/04/04 07:06:36;;;;;;;14.65;11.35;;;;;;;11.33;35.27;95458.91;5050310;28;20208;-62
2022/04/04 07:09:03;;;;;;;15.18;10.95;;;;;;;10.73;35.01;95458.22;5051982;28;20208;-60
2022/04/04 07:11:30;;;;;;;17.58;10.90;;;;;;;11.48;34.43;95463.56;5051947;28;20214;-61
2022/04/04 07:13:57;;;;;;;13.35;11.18;;;;;;;12.24;33.77;95460.59;5051396;28;20851;-62
2022/04/04 07:16:25;;;;;;;17.88;11.00;;;;;;;12.45;33.59;95461.53;5051144;28;20232;-60
2022/04/04 07:18:52;;;;;;;14.80;10.93;;;;;;;12.68;33.80;95456.69;5052311;28;20266;-62
2022/04/04 07:21:19;;;;;;;17.67;11.60;;;;;;;12.76;33.90;95466.72;5051432;28;20721;-62
2022/04/04 07:23:48;;;;;;;13.98;10.52;;;;;;;12.33;33.78;95464.34;5051552;28;20537;-62
2022/04/04 07:26:19;;;;;;;16.73;11.23;;;;;;;12.80;33.92;95465.19;5051236;28;20607;-63
2022/04/04 07:28:46;;;;;;;13.47;11.00;;;;;;;12.72;33.82;95467.47;5051758;28;20197;-61
2022/04/04 07:31:17;;;;;;;17.93;11.93;;;;;;;13.00;33.68;95470.53;5051467;28;20443;-62
2022/04/04 07:33:44;;;;;;;16.97;12.53;;;;;;;13.25;33.28;95461.97;5051870;28;20442;-63
2022/04/04 07:36:12;;;;;;;13.50;11.40;;;;;;;12.41;33.09;95471.75;5050313;28;20439;-61
2022/04/04 07:38:39;;;;;;;15.07;12.00;;;;;;;12.65;34.24;95461.66;5051459;28;20451;-67
2022/04/04 07:41:06;;;;;;;13.07;11.27;;;;;;;12.95;33.28;95474.97;5051284;28;20435;-64
2022/04/04 07:43:33;;;;;;;18.70;11.17;;;;;;;13.02;33.09;95463.22;5051096;28;20507;-60
2022/04/04 07:46:01;;;;;;;29.17;22.23;;;;;;;12.90;32.55;95461.81;5050834;28;20538;-70
2022/04/04 07:48:28;;;;;;;82.40;61.53;;;;;;;13.27;32.50;95464.34;5051091;28;20443;-62
2022/04/04 07:50:55;;;;;;;17.07;10.53;;;;;;;13.23;31.98;95470.13;5050570;28;20937;-62
2022/04/04 07:53:22;;;;;;;12.13;10.37;;;;;;;13.39;32.17;95462.31;5050439;28;20435;-63
2022/04/04 07:55:50;;;;;;;16.27;10.73;;;;;;;13.28;31.93;95473.84;5048647;28;20445;-61
2022/04/04 07:58:17;;;;;;;13.47;9.90;;;;;;;12.85;31.04;95477.53;5049015;28;20520;-64
2022/04/04 08:00:45;;;;;;;15.67;10.00;;;;;;;12.62;31.30;95478.75;5048490;28;20439;-63
2022/04/04 08:03:12;;;;;;;12.57;9.37;;;;;;;11.52;32.62;95488.25;5049061;28;20524;-61
2022/04/04 08:05:39;;;;;;;13.20;10.03;;;;;;;12.90;31.52;95480.22;5049902;28;20443;-61
2022/04/04 08:08:06;;;;;;;14.20;10.90;;;;;;;13.38;30.90;95474.66;5051057;28;20462;-62
2022/04/04 08:10:33;;;;;;;13.27;10.07;;;;;;;13.70;31.78;95474.50;5050106;28;20476;-62
2022/04/04 08:13:00;;;;;;;11.13;9.77;;;;;;;13.79;30.91;95472.94;5050674;28;20873;-60
2022/04/04 08:15:28;;;;;;;12.07;9.63;;;;;;;13.95;30.65;95466.63;5049913;28;20477;-61
2022/04/04 08:17:56;;;;;;;12.77;9.13;;;;;;;14.29;30.51;95470.34;5051003;28;20447;-60
2022/04/04 08:20:23;;;;;;;12.57;10.03;;;;;;;14.19;29.79;95462.44;5050518;28;20446;-60
2022/04/04 08:22:51;;;;;;;14.43;9.93;;;;;;;14.39;30.00;95459.81;5030655;28;20493;-61
2022/04/04 08:25:18;;;;;;;12.63;9.77;;;;;;;14.40;29.85;95452.72;5030222;28;20498;-61
2022/04/04 08:27:46;;;;;;;13.97;10.10;;;;;;;14.27;29.30;95450.59;5030171;28;20455;-64
2022/04/04 08:30:16;;;;;;;12.53;10.07;;;;;;;14.37;29.86;95456.66;5029780;28;20501;-62
2022/04/04 08:32:44;;;;;;;13.53;9.10;;;;;;;14.52;29.31;95445.31;5030585;28;20432;-61
2022/04/04 08:35:14;;;;;;;12.90;9.73;;;;;;;14.54;30.02;95446.63;5029805;28;20865;-61
2022/04/04 08:37:45;;;;;;;11.67;9.67;;;;;;;14.37;29.50;95432.94;5030090;28;20469;-61
2022/04/04 08:40:14;;;;;;;12.77;9.93;;;;;;;14.04;29.73;95438.72;5029391;28;20953;-60
2022/04/04 08:42:41;;;;;;;22.23;12.77;;;;;;;14.54;29.81;95433.44;5029834;28;20877;-62
2022/04/04 08:45:08;;;;;;;12.10;10.30;;;;;;;14.59;29.71;95424.72;5029464;28;20455;-63
2022/04/04 08:47:36;;;;;;;11.50;9.80;;;;;;;14.93;29.43;95423.84;5030266;28;20447;-63
2022/04/04 08:50:03;;;;;;;13.87;9.77;;;;;;;14.94;29.19;95422.00;5044682;28;20453;-61
2022/04/04 08:52:30;;;;;;;13.37;9.27;;;;;;;14.76;28.13;95420.72;5050088;28;20439;-64
2022/04/04 08:54:57;;;;;;;11.03;9.03;;;;;;;14.42;29.04;95411.81;5048270;28;21012;-62
2022/04/04 08:57:24;;;;;;;10.73;9.03;;;;;;;14.91;28.08;95402.19;5030268;28;20439;-60
2022/04/04 08:59:51;;;;;;;10.03;8.97;;;;;;;14.87;28.11;95403.03;5029624;28;21012;-61
2022/04/04 09:02:18;;;;;;;13.27;9.43;;;;;;;15.24;27.87;95406.81;5029721;28;20485;-60
2022/04/04 09:04:50;;;;;;;13.23;9.20;;;;;;;15.56;28.87;95392.41;5029199;28;20440;-61
2022/04/04 09:07:18;;;;;;;12.10;9.47;;;;;;;16.23;27.87;95387.13;5030074;28;20460;-61
2022/04/04 09:09:50;;;;;;;14.87;10.00;;;;;;;15.58;27.29;95385.81;5029095;28;20447;-62
2022/04/04 09:12:20;;;;;;;12.73;9.83;;;;;;;15.62;27.77;95378.13;5029336;28;20982;-61
2022/04/04 09:14:49;;;;;;;14.07;10.00;;;;;;;15.84;27.30;95383.75;5029038;28;20443;-61
2022/04/04 09:17:28;;;;;;;13.40;9.60;;;;;;;16.23;27.83;95382.66;5029604;28;20471;-61
2022/04/04 09:19:56;;;;;;;11.70;10.00;;;;;;;16.41;27.16;95378.50;5028841;28;20459;-62
2022/04/04 09:22:23;;;;;;;12.33;9.67;;;;;;;16.14;27.47;95373.75;5029108;28;20479;-61
2022/04/04 09:24:57;;;;;;;13.00;10.07;;;;;;;16.27;28.07;95355.63;5028581;28;20837;-61
2022/04/04 09:27:26;;;;;;;13.03;9.40;;;;;;;17.10;27.92;95370.88;5029724;28;20474;-63
2022/04/04 09:30:21;;;;;;;13.60;9.67;;;;;;;16.30;26.74;95363.78;5028763;28;21003;-62
2022/04/04 09:32:49;;;;;;;12.77;9.67;;;;;;;16.59;27.90;95364.59;5029702;28;21053;-61
2022/04/04 09:35:18;;;;;;;12.13;9.50;;;;;;;16.86;27.46;95354.22;5028582;28;20838;-63
2022/04/04 09:37:48;;;;;;;11.13;9.83;;;;;;;16.76;26.76;95354.34;5029740;28;20452;-61
2022/04/04 09:40:20;;;;;;;14.53;9.17;;;;;;;16.21;26.52;95357.53;5028718;28;20444;-61
2022/04/04 09:42:57;;;;;;;11.43;9.47;;;;;;;16.06;27.83;95344.44;5029090;28;20476;-61
2022/04/04 09:45:28;;;;;;;15.70;9.77;;;;;;;16.52;28.68;95360.69;5029990;28;20447;-62
2022/04/04 09:48:00;;;;;;;11.47;9.40;;;;;;;16.47;27.37;95353.63;5043597;28;20442;-63
2022/04/04 09:50:32;;;;;;;13.47;9.93;;;;;;;15.92;26.73;95343.53;5048363;28;20973;-61
2022/04/04 09:53:06;;;;;;;12.50;10.03;;;;;;;16.58;26.96;95335.78;5048329;28;20435;-62
2022/04/04 09:55:38;;;;;;;13.33;9.83;;;;;;;16.67;26.83;95340.16;5048159;28;20450;-61
2022/04/04 09:58:11;;;;;;;12.10;10.10;;;;;;;17.05;26.04;95336.53;5048884;28;20459;-62
2022/04/04 10:00:39;;;;;;;14.63;9.93;;;;;;;17.17;27.06;95326.28;5048641;28;20439;-63
2022/04/04 10:03:13;;;;;;;10.43;9.27;;;;;;;16.96;26.12;95300.38;5048726;28;20518;-65
2022/04/04 10:05:46;;;;;;;10.83;9.10;;;;;;;16.18;26.68;95321.84;5048634;28;20877;-61
2022/04/04 10:08:15;;;;;;;12.37;9.17;;;;;;;16.48;26.94;95315.50;5048796;28;20539;-61
2022/04/04 10:10:43;;;;;;;13.57;9.97;;;;;;;16.45;26.70;95310.75;5048335;28;20438;-62
2022/04/04 10:13:14;;;;;;;17.47;10.50;;;;;;;16.65;28.19;95305.25;5049098;28;20447;-61
2022/04/04 10:15:41;;;;;;;11.00;9.10;;;;;;;17.56;26.54;95298.72;5048107;28;20995;-63
2022/04/04 10:18:09;;;;;;;11.13;8.73;;;;;;;17.11;26.52;95295.69;5045161;28;20440;-63
2022/04/04 10:20:37;;;;;;;13.87;9.60;;;;;;;17.57;26.38;95292.38;5030980;28;20547;-62
2022/04/04 10:23:10;;;;;;;15.73;9.30;;;;;;;17.58;27.03;95286.00;5030969;28;20515;-63
2022/04/04 10:25:38;;;;;;;10.93;8.77;;;;;;;17.66;26.55;95277.38;5031772;28;20589;-63
2022/04/04 10:28:05;;;;;;;11.03;9.13;;;;;;;17.38;27.36;95265.06;5031531;28;20447;-64
2022/04/04 10:30:41;;;;;;;11.23;8.47;;;;;;;17.18;26.54;95280.22;5030496;28;20459;-62
2022/04/04 10:33:20;;;;;;;11.07;9.10;;;;;;;17.72;26.70;95268.25;5027182;28;20509;-65
2022/04/04 10:36:02;;;;;;;10.90;8.73;;;;;;;18.02;26.96;95275.72;5036267;28;20452;-61
2022/04/04 10:38:33;;;;;;;11.73;8.90;;;;;;;17.92;26.59;95267.91;5038880;28;20504;-63
2022/04/04 10:41:07;;;;;;;12.60;8.47;;;;;;;18.39;25.91;95259.66;5030173;28;20530;-64
2022/04/04 10:43:37;;;;;;;12.43;8.13;;;;;;;18.21;26.16;95263.16;5037059;28;20582;-62
2022/04/04 10:46:14;;;;;;;9.97;8.00;;;;;;;18.37;25.23;95256.50;5036735;28;20441;-62
2022/04/04 10:48:53;;;;;;;9.90;7.63;;;;;;;18.50;25.59;95250.44;5035654;28;20498;-62
2022/04/04 10:51:28;;;;;;;15.13;8.20;;;;;;;18.41;25.86;95252.19;5032660;28;20454;-63
2022/04/04 10:53:59;;;;;;;10.27;8.53;;;;;;;18.56;25.93;95254.53;5041254;28;20443;-61
2022/04/04 10:56:42;;;;;;;12.13;8.70;;;;;;;18.24;25.06;95246.66;5030577;28;20458;-65
2022/04/04 10:59:15;;;;;;;10.60;8.43;;;;;;;18.01;25.44;95247.63;5032045;28;20447;-62
2022/04/04 11:01:45;;;;;;;10.83;8.53;;;;;;;16.21;26.34;95251.78;5032131;28;20883;-62
2022/04/04 11:04:26;;;;;;;11.47;8.77;;;;;;;15.11;27.90;95253.50;5031662;28;20840;-63
2022/04/04 11:10:06;;;;;;;11.03;9.20;;;;;;;17.29;26.80;95250.91;5031322;28;20432;-64
2022/04/04 11:13:07;;;;;;;12.73;9.63;;;;;;;18.18;26.29;95237.22;5032329;28;20793;-62
2022/04/04 11:15:43;;;;;;;13.07;9.80;;;;;;;17.99;26.39;95225.91;5031692;28;20432;-62
2022/04/04 11:18:12;;;;;;;14.47;9.00;;;;;;;18.60;26.40;95231.63;5031591;28;20467;-59
2022/04/04 11:21:00;;;;;;;10.23;9.10;;;;;;;18.50;26.08;95245.13;5031623;28;20436;-60
2022/04/04 11:23:33;;;;;;;11.10;8.30;;;;;;;18.67;26.24;95249.81;5031513;28;20515;-62
2022/04/04 11:26:04;;;;;;;9.10;8.03;;;;;;;19.10;26.33;95238.50;5030669;28;20466;-63
2022/04/04 11:28:35;;;;;;;12.67;8.90;;;;;;;18.89;25.69;95228.63;5031880;28;20860;-63
2022/04/04 11:31:07;;;;;;;11.80;8.87;;;;;;;19.06;24.80;95218.97;5031217;28;20878;-62
2022/04/04 11:33:47;;;;;;;11.43;8.90;;;;;;;19.11;25.45;95210.88;5031575;28;20476;-62
2022/04/04 11:36:27;;;;;;;13.67;8.60;;;;;;;18.24;25.35;95217.47;5030946;28;20444;-61
2022/04/04 11:39:00;;;;;;;16.53;9.23;;;;;;;19.04;25.68;95207.84;5035591;28;20447;-62
2022/04/04 11:41:35;;;;;;;10.60;8.53;;;;;;;19.23;26.30;95196.25;5035760;28;20440;-61
2022/04/04 11:44:06;;;;;;;11.87;8.90;;;;;;;19.53;24.82;95198.19;5034844;28;20522;-62
2022/04/04 11:46:33;;;;;;;11.23;8.43;;;;;;;19.75;24.97;95196.31;5040148;28;20450;-62
2022/04/04 11:49:02;;;;;;;11.30;8.37;;;;;;;19.92;24.23;95184.97;5040441;28;20451;-61